Terminal Aerodrome Forecast
Issued by NWS

Home | Current Version | Previous Version | Graphics & Text | Print | Product List | Glossary On
Versions: 1 2 3 4 5 6 7 8 9 10 11 12 13 14
000
FTUS43 KMPX 251135
TAFRWF
TAF
KRWF 251135Z 2512/2612 26008KT P6SM SCT035 BKN090
     FM251500 27014G22KT P6SM BKN035
     FM251900 29020G28KT P6SM OVC025
     FM260200 30015G22KT P6SM BKN050=

USA.gov is the U.S. government's official web portal to all federal, state and local government web resources and services.